Time;durP1;ratioP1;P1;durP2;ratioP2;P2;SDS_P1;SDS_P2;PMS_P1;PMS_P2;Temp;Humidity;BMP_temperature;BMP_pressure;BME280_temperature;BME280_humidity;BME280_pressure;Samples;Min_cycle;Max_cycle;Signal;HPM_P1;HPM_P2
2020/07/17 00:00:59;;;;;;;4.79;2.97;;;;;;;21.45;63.97;100636.34;;;;-64
2020/07/17 00:03:59;;;;;;;4.38;2.90;;;;;;;21.45;64.05;100630.14;;;;-64
2020/07/17 00:06:59;;;;;;;4.53;2.87;;;;;;;21.44;64.08;100629.84;;;;-64
2020/07/17 00:09:59;;;;;;;3.93;2.85;;;;;;;21.44;64.12;100626.48;;;;-63
2020/07/17 00:13:59;;;;;;;4.75;3.07;;;;;;;21.43;64.06;100628.02;;;;-64
2020/07/17 00:23:26;;;;;;;4.17;3.05;;;;;;;21.42;64.01;100632.52;;;;-62
2020/07/17 00:27:26;;;;;;;4.55;3.05;;;;;;;21.41;63.96;100630.43;;;;-62
2020/07/17 00:30:26;;;;;;;3.79;2.79;;;;;;;21.41;64.08;100634.27;;;;-63
2020/07/17 00:33:26;;;;;;;3.43;2.71;;;;;;;21.40;64.03;100631.19;;;;-62
2020/07/17 00:36:26;;;;;;;3.65;2.65;;;;;;;21.39;64.05;100626.52;;;;-63
2020/07/17 00:39:26;;;;;;;4.47;3.05;;;;;;;21.39;64.03;100627.50;;;;-62
2020/07/17 00:42:26;;;;;;;3.52;3.00;;;;;;;21.39;64.03;100629.78;;;;-62
2020/07/17 00:45:26;;;;;;;3.63;2.73;;;;;;;21.38;64.09;100630.84;;;;-62
2020/07/17 00:48:26;;;;;;;4.08;2.68;;;;;;;21.37;64.07;100630.37;;;;-62
2020/07/17 00:51:26;;;;;;;3.33;2.75;;;;;;;21.38;64.06;100627.19;;;;-62
2020/07/17 00:54:26;;;;;;;3.39;2.57;;;;;;;21.37;63.99;100625.16;;;;-62
2020/07/17 00:57:26;;;;;;;3.09;2.66;;;;;;;21.36;64.03;100622.69;;;;-62
2020/07/17 01:00:26;;;;;;;3.87;2.67;;;;;;;21.37;64.02;100623.66;;;;-62
2020/07/17 01:03:26;;;;;;;3.41;2.65;;;;;;;21.36;64.05;100621.64;;;;-62
2020/07/17 01:06:26;;;;;;;3.87;2.71;;;;;;;21.35;64.02;100618.36;;;;-62
2020/07/17 01:09:26;;;;;;;3.32;2.69;;;;;;;21.35;64.05;100618.77;;;;-63
2020/07/17 01:12:26;;;;;;;3.15;2.42;;;;;;;21.35;64.07;100618.53;;;;-63
2020/07/17 01:15:26;;;;;;;2.97;2.60;;;;;;;21.35;64.05;100619.59;;;;-63
2020/07/17 01:18:26;;;;;;;3.69;2.71;;;;;;;21.34;64.02;100621.47;;;;-62
2020/07/17 01:21:26;;;;;;;3.57;2.71;;;;;;;21.34;64.04;100620.33;;;;-62
2020/07/17 01:24:26;;;;;;;3.18;2.45;;;;;;;21.33;64.17;100619.01;;;;-62
2020/07/17 01:27:26;;;;;;;3.01;2.63;;;;;;;21.34;64.04;100622.86;;;;-63
2020/07/17 01:30:26;;;;;;;3.33;2.63;;;;;;;21.32;64.08;100622.85;;;;-63
2020/07/17 01:33:26;;;;;;;3.06;2.71;;;;;;;21.33;64.03;100623.41;;;;-63
2020/07/17 01:36:26;;;;;;;3.47;2.53;;;;;;;21.32;64.11;100622.61;;;;-63
2020/07/17 01:39:26;;;;;;;3.37;2.53;;;;;;;21.31;64.08;100619.44;;;;-63
2020/07/17 01:42:26;;;;;;;2.78;2.29;;;;;;;21.32;64.08;100617.48;;;;-63
2020/07/17 01:45:26;;;;;;;2.95;2.41;;;;;;;21.31;64.02;100617.21;;;;-62
2020/07/17 01:48:26;;;;;;;3.13;2.50;;;;;;;21.31;64.02;100613.22;;;;-63
2020/07/17 01:51:26;;;;;;;3.15;2.48;;;;;;;21.30;64.00;100615.84;;;;-63
2020/07/17 01:54:26;;;;;;;2.98;2.39;;;;;;;21.30;64.11;100614.54;;;;-62
2020/07/17 01:57:26;;;;;;;3.59;2.61;;;;;;;21.30;64.00;100614.05;;;;-63
2020/07/17 02:00:26;;;;;;;2.65;2.37;;;;;;;21.30;64.04;100614.86;;;;-63
2020/07/17 02:03:26;;;;;;;2.54;2.29;;;;;;;21.29;64.03;100612.50;;;;-62
2020/07/17 02:06:26;;;;;;;2.96;2.41;;;;;;;21.28;64.03;100609.72;;;;-63
2020/07/17 02:09:26;;;;;;;2.87;2.57;;;;;;;21.28;64.05;100608.82;;;;-63
2020/07/17 02:12:26;;;;;;;2.80;2.33;;;;;;;21.28;63.99;100610.95;;;;-62
2020/07/17 02:15:26;;;;;;;3.01;2.54;;;;;;;21.28;64.05;100612.09;;;;-62
2020/07/17 02:18:26;;;;;;;3.12;2.37;;;;;;;21.27;64.08;100611.77;;;;-62
2020/07/17 02:21:26;;;;;;;2.63;2.37;;;;;;;21.27;64.08;100614.44;;;;-62
2020/07/17 02:24:26;;;;;;;2.89;2.43;;;;;;;21.26;64.13;100614.93;;;;-62
2020/07/17 02:27:26;;;;;;;2.55;2.15;;;;;;;21.26;64.01;100617.21;;;;-63
2020/07/17 02:30:26;;;;;;;2.50;2.29;;;;;;;21.26;64.03;100617.30;;;;-63
2020/07/17 02:33:26;;;;;;;2.60;2.29;;;;;;;21.26;64.10;100617.80;;;;-62
2020/07/17 02:36:26;;;;;;;3.69;2.24;;;;;;;21.25;63.99;100617.23;;;;-63
2020/07/17 02:39:26;;;;;;;2.53;2.31;;;;;;;21.26;64.09;100622.92;;;;-62
2020/07/17 02:42:26;;;;;;;3.34;2.36;;;;;;;21.25;64.06;100623.07;;;;-63
2020/07/17 02:45:26;;;;;;;2.58;2.32;;;;;;;21.25;64.07;100625.62;;;;-63
2020/07/17 02:48:26;;;;;;;2.75;2.38;;;;;;;21.25;64.11;100625.19;;;;-62
2020/07/17 02:51:26;;;;;;;2.77;2.19;;;;;;;21.24;64.00;100629.59;;;;-62
2020/07/17 02:54:26;;;;;;;2.47;2.20;;;;;;;21.24;64.15;100630.18;;;;-62
2020/07/17 02:57:26;;;;;;;3.73;2.16;;;;;;;21.24;64.04;100630.50;;;;-62
2020/07/17 03:00:26;;;;;;;2.62;2.29;;;;;;;21.24;64.02;100632.45;;;;-62
2020/07/17 03:03:26;;;;;;;3.03;2.47;;;;;;;21.22;64.03;100628.62;;;;-63
2020/07/17 03:06:26;;;;;;;2.93;2.19;;;;;;;21.22;64.02;100632.04;;;;-62
2020/07/17 03:09:26;;;;;;;2.60;2.27;;;;;;;21.22;64.08;100628.87;;;;-62
2020/07/17 03:12:26;;;;;;;2.80;2.35;;;;;;;21.23;64.05;100633.27;;;;-62
2020/07/17 03:15:26;;;;;;;2.48;2.23;;;;;;;21.22;64.07;100637.09;;;;-62
2020/07/17 03:18:26;;;;;;;2.47;2.18;;;;;;;21.22;64.07;100634.58;;;;-63
2020/07/17 03:21:26;;;;;;;3.06;2.24;;;;;;;21.22;64.09;100632.20;;;;-63
2020/07/17 03:24:26;;;;;;;2.53;2.23;;;;;;;21.20;64.12;100631.62;;;;-62
2020/07/17 03:27:26;;;;;;;2.47;2.27;;;;;;;21.20;64.08;100636.52;;;;-63
2020/07/17 03:30:26;;;;;;;3.30;2.32;;;;;;;21.21;64.01;100637.52;;;;-62
2020/07/17 03:33:26;;;;;;;3.05;2.34;;;;;;;21.20;64.05;100641.08;;;;-63
2020/07/17 03:36:26;;;;;;;2.22;2.02;;;;;;;21.22;63.99;100645.34;;;;-63
2020/07/17 03:39:26;;;;;;;2.59;2.26;;;;;;;21.20;64.05;100642.30;;;;-62
2020/07/17 03:42:26;;;;;;;2.91;2.09;;;;;;;21.20;64.07;100645.00;;;;-50
2020/07/17 03:45:26;;;;;;;2.16;1.96;;;;;;;21.20;64.05;100643.85;;;;-52
2020/07/17 03:48:26;;;;;;;2.30;2.10;;;;;;;21.20;63.97;100645.97;;;;-50
2020/07/17 03:51:26;;;;;;;2.52;2.05;;;;;;;21.20;63.95;100648.34;;;;-51
2020/07/17 03:54:26;;;;;;;2.44;2.11;;;;;;;21.20;63.99;100648.83;;;;-52
2020/07/17 03:57:26;;;;;;;2.55;1.99;;;;;;;21.19;63.98;100650.39;;;;-52
2020/07/17 04:00:26;;;;;;;2.32;2.12;;;;;;;21.19;63.98;100654.45;;;;-51
2020/07/17 04:03:26;;;;;;;2.29;2.08;;;;;;;21.19;63.94;100657.88;;;;-50
2020/07/17 04:06:26;;;;;;;2.20;2.00;;;;;;;21.19;63.98;100661.80;;;;-52
2020/07/17 04:09:26;;;;;;;2.49;2.09;;;;;;;21.19;63.95;100662.38;;;;-51
2020/07/17 04:13:26;;;;;;;2.19;1.99;;;;;;;21.19;63.98;100669.95;;;;-50
2020/07/17 04:16:26;;;;;;;2.16;1.98;;;;;;;21.18;63.98;100670.02;;;;-51
2020/07/17 04:19:26;;;;;;;2.30;2.00;;;;;;;21.18;63.95;100665.86;;;;-50
2020/07/17 04:22:26;;;;;;;2.47;2.11;;;;;;;21.17;64.01;100668.97;;;;-51
2020/07/17 04:25:26;;;;;;;2.11;1.91;;;;;;;21.17;63.92;100664.41;;;;-50
2020/07/17 04:28:26;;;;;;;2.87;2.03;;;;;;;21.17;63.97;100667.41;;;;-51
2020/07/17 04:31:26;;;;;;;2.79;2.09;;;;;;;21.17;63.96;100666.69;;;;-51
2020/07/17 04:34:26;;;;;;;2.30;2.10;;;;;;;21.17;63.92;100664.48;;;;-52
2020/07/17 04:37:26;;;;;;;2.21;2.01;;;;;;;21.16;63.97;100664.54;;;;-51
2020/07/17 04:40:26;;;;;;;2.20;2.00;;;;;;;21.16;63.90;100666.66;;;;-51
2020/07/17 04:43:26;;;;;;;3.30;2.07;;;;;;;21.16;63.93;100668.30;;;;-52
2020/07/17 04:46:26;;;;;;;2.03;1.90;;;;;;;21.17;63.94;100673.94;;;;-51
2020/07/17 04:49:26;;;;;;;2.29;2.01;;;;;;;21.16;63.93;100676.93;;;;-50
2020/07/17 04:52:26;;;;;;;3.25;2.27;;;;;;;21.16;63.90;100680.12;;;;-51
2020/07/17 04:55:26;;;;;;;11.63;8.40;;;;;;;21.09;67.77;100679.94;;;;-54
2020/07/17 04:58:26;;;;;;;14.10;9.97;;;;;;;21.07;68.62;100677.48;;;;-53
2020/07/17 05:01:26;;;;;;;12.73;10.97;;;;;;;21.00;69.56;100685.63;;;;-53
2020/07/17 05:04:26;;;;;;;16.17;11.00;;;;;;;20.92;69.77;100685.51;;;;-53
2020/07/17 05:07:26;;;;;;;17.65;11.09;;;;;;;20.83;70.50;100692.95;;;;-53
2020/07/17 05:10:26;;;;;;;15.00;11.90;;;;;;;20.75;70.94;100690.63;;;;-50
2020/07/17 05:13:26;;;;;;;13.75;10.08;;;;;;;20.68;70.53;100695.49;;;;-59
2020/07/17 05:16:26;;;;;;;12.55;8.62;;;;;;;20.69;69.87;100697.71;;;;-58
2020/07/17 05:19:26;;;;;;;12.05;8.45;;;;;;;20.73;69.38;100701.88;;;;-58
2020/07/17 05:22:26;;;;;;;8.96;7.85;;;;;;;20.79;68.95;100707.83;;;;-59
2020/07/17 05:25:26;;;;;;;8.57;6.99;;;;;;;20.81;68.64;100709.47;;;;-59
2020/07/17 05:28:26;;;;;;;7.05;6.27;;;;;;;20.83;68.33;100709.89;;;;-58
2020/07/17 05:31:26;;;;;;;7.33;5.73;;;;;;;20.86;68.07;100710.08;;;;-59
2020/07/17 05:34:26;;;;;;;6.45;5.87;;;;;;;20.87;67.89;100710.07;;;;-58
2020/07/17 05:37:26;;;;;;;6.46;5.47;;;;;;;20.89;67.64;100712.60;;;;-58
2020/07/17 05:40:26;;;;;;;5.42;4.92;;;;;;;20.91;67.49;100714.66;;;;-58
2020/07/17 05:43:26;;;;;;;5.12;4.56;;;;;;;20.91;67.41;100711.23;;;;-58
2020/07/17 05:46:26;;;;;;;4.99;4.49;;;;;;;20.92;67.26;100716.55;;;;-59
2020/07/17 05:49:26;;;;;;;4.79;4.33;;;;;;;20.93;67.18;100719.72;;;;-59
2020/07/17 05:52:26;;;;;;;4.37;3.99;;;;;;;20.93;67.10;100719.96;;;;-59
2020/07/17 05:55:26;;;;;;;4.46;4.05;;;;;;;20.94;67.08;100725.28;;;;-59
2020/07/17 05:58:26;;;;;;;4.73;4.00;;;;;;;20.94;66.94;100724.45;;;;-58
2020/07/17 06:01:26;;;;;;;4.41;3.63;;;;;;;20.96;66.82;100728.63;;;;-58
2020/07/17 06:04:26;;;;;;;4.28;3.61;;;;;;;20.95;66.69;100730.80;;;;-58
2020/07/17 06:07:26;;;;;;;4.47;3.41;;;;;;;20.96;66.69;100727.23;;;;-59
2020/07/17 06:10:26;;;;;;;3.84;3.49;;;;;;;20.96;66.64;100724.80;;;;-58
2020/07/17 06:13:26;;;;;;;3.59;3.27;;;;;;;20.97;66.54;100729.34;;;;-58
2020/07/17 06:16:26;;;;;;;3.60;3.30;;;;;;;20.97;66.55;100732.28;;;;-58
2020/07/17 06:19:26;;;;;;;3.53;3.23;;;;;;;20.97;66.45;100735.63;;;;-59
2020/07/17 06:22:26;;;;;;;3.77;3.07;;;;;;;20.97;66.35;100738.23;;;;-59
2020/07/17 06:25:26;;;;;;;3.30;3.00;;;;;;;20.97;66.40;100743.20;;;;-59
2020/07/17 06:28:26;;;;;;;3.33;3.02;;;;;;;20.97;66.31;100744.59;;;;-58
2020/07/17 06:31:26;;;;;;;3.10;2.90;;;;;;;20.96;66.30;100746.30;;;;-58
2020/07/17 06:34:26;;;;;;;3.50;3.21;;;;;;;20.97;66.23;100749.80;;;;-58
2020/07/17 06:37:26;;;;;;;3.30;2.99;;;;;;;20.97;66.18;100753.06;;;;-58
2020/07/17 06:40:26;;;;;;;4.55;2.99;;;;;;;20.97;66.20;100755.50;;;;-58
2020/07/17 06:43:25;;;;;;;5.15;2.89;;;;;;;20.97;66.09;100757.62;;;;-57
2020/07/17 06:46:26;;;;;;;3.49;2.91;;;;;;;20.98;66.06;100759.25;;;;-58
2020/07/17 06:49:26;;;;;;;3.06;2.85;;;;;;;20.97;66.06;100763.57;;;;-59
2020/07/17 06:52:26;;;;;;;3.06;2.86;;;;;;;20.97;66.06;100763.16;;;;-59
2020/07/17 06:55:26;;;;;;;3.17;2.91;;;;;;;20.97;66.06;100765.94;;;;-60
2020/07/17 06:58:26;;;;;;;2.98;2.78;;;;;;;20.97;66.00;100768.38;;;;-59
2020/07/17 07:01:26;;;;;;;2.97;2.77;;;;;;;20.97;66.00;100770.17;;;;-60
2020/07/17 07:04:26;;;;;;;3.27;2.85;;;;;;;20.97;66.01;100772.13;;;;-60
2020/07/17 07:07:26;;;;;;;2.96;2.63;;;;;;;20.97;65.98;100777.25;;;;-60
2020/07/17 07:10:26;;;;;;;3.12;2.82;;;;;;;20.97;65.99;100778.33;;;;-60
2020/07/17 07:13:26;;;;;;;2.91;2.60;;;;;;;20.96;65.94;100777.44;;;;-59
2020/07/17 07:16:26;;;;;;;2.79;2.59;;;;;;;20.97;65.89;100775.39;;;;-59
2020/07/17 07:19:26;;;;;;;2.93;2.73;;;;;;;20.96;65.87;100777.59;;;;-59
2020/07/17 07:22:26;;;;;;;3.09;2.79;;;;;;;20.97;65.86;100782.64;;;;-58
2020/07/17 07:25:25;;;;;;;2.77;2.57;;;;;;;20.96;65.81;100785.25;;;;-58
2020/07/17 07:28:26;;;;;;;2.65;2.45;;;;;;;20.96;65.84;100784.19;;;;-58
2020/07/17 07:31:26;;;;;;;2.71;2.51;;;;;;;20.96;65.77;100787.38;;;;-58
2020/07/17 07:34:26;;;;;;;2.89;2.69;;;;;;;20.98;65.74;100784.94;;;;-56
2020/07/17 07:37:26;;;;;;;3.02;2.60;;;;;;;21.01;66.02;100791.14;;;;-57
2020/07/17 07:40:26;;;;;;;3.55;2.69;;;;;;;21.03;66.22;100793.51;;;;-56
2020/07/17 07:43:26;;;;;;;3.65;2.69;;;;;;;21.05;66.31;100791.72;;;;-58
2020/07/17 07:46:26;;;;;;;4.53;2.66;;;;;;;21.07;66.21;100790.77;;;;-59
2020/07/17 07:49:26;;;;;;;4.70;2.73;;;;;;;21.08;66.34;100793.59;;;;-51
2020/07/17 07:52:26;;;;;;;4.29;2.78;;;;;;;21.09;66.19;100794.02;;;;-52
2020/07/17 07:55:26;;;;;;;3.09;2.81;;;;;;;21.10;66.32;100788.89;;;;-57
2020/07/17 07:58:26;;;;;;;3.44;2.67;;;;;;;21.11;66.37;100788.41;;;;-56
2020/07/17 08:01:26;;;;;;;4.02;2.53;;;;;;;21.13;66.31;100788.84;;;;-58
2020/07/17 08:04:26;;;;;;;3.87;2.65;;;;;;;21.14;66.23;100789.56;;;;-57
2020/07/17 08:07:25;;;;;;;2.89;2.51;;;;;;;21.15;66.06;100793.00;;;;-56
2020/07/17 08:10:26;;;;;;;4.43;2.58;;;;;;;21.15;66.32;100792.44;;;;-56
2020/07/17 08:13:26;;;;;;;6.77;2.77;;;;;;;21.14;66.29;100792.41;;;;-56
2020/07/17 08:16:26;;;;;;;4.31;2.71;;;;;;;21.15;66.20;100794.72;;;;-56
2020/07/17 08:19:26;;;;;;;3.63;2.56;;;;;;;21.15;66.06;100797.23;;;;-56
2020/07/17 08:22:26;;;;;;;6.06;2.77;;;;;;;21.15;66.15;100799.44;;;;-56
2020/07/17 08:25:26;;;;;;;2.81;2.49;;;;;;;21.15;65.92;100797.08;;;;-56
2020/07/17 08:28:26;;;;;;;2.95;2.60;;;;;;;21.15;65.91;100804.41;;;;-56
2020/07/17 08:31:26;;;;;;;4.01;2.59;;;;;;;21.16;65.85;100802.70;;;;-56
2020/07/17 08:34:26;;;;;;;10.61;3.00;;;;;;;21.15;65.90;100797.98;;;;-56
2020/07/17 08:37:26;;;;;;;3.39;2.56;;;;;;;21.15;65.81;100795.86;;;;-56
2020/07/17 08:40:26;;;;;;;3.96;2.53;;;;;;;21.16;65.72;100796.58;;;;-56
2020/07/17 08:43:26;;;;;;;3.37;2.37;;;;;;;21.14;65.67;100794.28;;;;-56
2020/07/17 08:46:26;;;;;;;2.73;2.43;;;;;;;21.15;65.72;100796.43;;;;-56
2020/07/17 08:49:26;;;;;;;2.86;2.50;;;;;;;21.14;65.53;100795.42;;;;-56
2020/07/17 08:52:26;;;;;;;2.87;2.41;;;;;;;21.14;65.69;100794.45;;;;-56
2020/07/17 08:55:26;;;;;;;2.56;2.36;;;;;;;21.15;65.56;100799.13;;;;-56
2020/07/17 08:58:26;;;;;;;2.68;2.35;;;;;;;21.14;65.50;100799.02;;;;-56
2020/07/17 09:01:26;;;;;;;2.67;2.44;;;;;;;21.14;65.49;100798.20;;;;-56
2020/07/17 09:04:26;;;;;;;2.50;2.30;;;;;;;21.14;65.43;100798.69;;;;-57
2020/07/17 09:07:26;;;;;;;4.11;2.43;;;;;;;21.15;65.54;100800.50;;;;-57
2020/07/17 09:10:26;;;;;;;2.37;2.17;;;;;;;21.16;65.63;100797.72;;;;-56
2020/07/17 09:13:26;;;;;;;3.42;2.54;;;;;;;21.17;65.73;100795.95;;;;-57
2020/07/17 09:16:26;;;;;;;3.77;2.58;;;;;;;21.18;65.83;100795.38;;;;-56
2020/07/17 09:19:26;;;;;;;5.30;2.40;;;;;;;21.20;66.01;100793.98;;;;-52
2020/07/17 09:22:26;;;;;;;4.25;2.44;;;;;;;21.22;66.04;100793.36;;;;-56
2020/07/17 09:25:26;;;;;;;3.04;2.41;;;;;;;21.23;65.91;100789.76;;;;-57
2020/07/17 09:28:26;;;;;;;2.85;2.41;;;;;;;21.24;66.10;100788.15;;;;-55
2020/07/17 09:31:25;;;;;;;6.57;2.48;;;;;;;21.23;65.88;100790.02;;;;-60
2020/07/17 09:34:26;;;;;;;5.17;2.57;;;;;;;21.23;66.03;100791.30;;;;-60
2020/07/17 09:37:26;;;;;;;3.00;2.46;;;;;;;21.24;65.92;100793.85;;;;-60
2020/07/17 09:40:26;;;;;;;3.19;2.53;;;;;;;21.23;65.98;100791.30;;;;-56
2020/07/17 09:43:26;;;;;;;7.13;2.51;;;;;;;21.24;65.83;100793.61;;;;-55
2020/07/17 09:46:26;;;;;;;3.93;2.72;;;;;;;21.26;65.97;100792.47;;;;-57
2020/07/17 09:49:26;;;;;;;4.42;2.57;;;;;;;21.26;66.08;100792.80;;;;-56
2020/07/17 09:52:26;;;;;;;3.93;2.57;;;;;;;21.27;66.15;100787.73;;;;-60
2020/07/17 09:55:26;;;;;;;5.89;3.36;;;;;;;21.30;66.06;100787.84;;;;-59
2020/07/17 09:58:26;;;;;;;5.56;2.81;;;;;;;21.29;66.08;100787.53;;;;-59
2020/07/17 10:01:26;;;;;;;3.98;3.09;;;;;;;21.28;65.93;100791.83;;;;-60
2020/07/17 10:04:26;;;;;;;5.31;3.12;;;;;;;21.28;65.90;100789.39;;;;-59
2020/07/17 10:07:26;;;;;;;6.55;2.97;;;;;;;21.27;65.87;100788.58;;;;-59
2020/07/17 10:10:26;;;;;;;5.73;3.13;;;;;;;21.27;65.76;100784.26;;;;-55
2020/07/17 10:13:26;;;;;;;3.33;3.03;;;;;;;21.28;65.84;100784.81;;;;-56
2020/07/17 10:16:26;;;;;;;4.97;2.95;;;;;;;21.28;65.77;100782.62;;;;-56
2020/07/17 10:19:26;;;;;;;3.99;3.31;;;;;;;21.28;65.64;100779.44;;;;-55
2020/07/17 10:22:26;;;;;;;4.89;3.21;;;;;;;21.27;65.61;100778.88;;;;-55
2020/07/17 10:25:26;;;;;;;5.97;3.33;;;;;;;21.26;65.63;100778.45;;;;-55
2020/07/17 10:28:26;;;;;;;6.40;3.25;;;;;;;21.27;65.55;100779.17;;;;-55
2020/07/17 10:31:26;;;;;;;5.38;3.23;;;;;;;21.26;65.63;100776.33;;;;-56
2020/07/17 10:34:26;;;;;;;4.20;3.07;;;;;;;21.25;65.53;100777.89;;;;-56
2020/07/17 10:37:25;;;;;;;4.31;3.05;;;;;;;21.25;65.57;100772.97;;;;-55
2020/07/17 10:40:26;;;;;;;5.79;3.43;;;;;;;21.25;65.45;100773.30;;;;-56
2020/07/17 10:43:26;;;;;;;8.64;3.39;;;;;;;21.26;65.51;100777.80;;;;-55
2020/07/17 10:46:26;;;;;;;6.71;3.36;;;;;;;21.27;65.38;100772.44;;;;-55
2020/07/17 10:49:26;;;;;;;5.93;3.03;;;;;;;21.29;65.44;100776.41;;;;-55
2020/07/17 10:52:26;;;;;;;6.65;3.26;;;;;;;21.28;65.45;100770.30;;;;-56
2020/07/17 10:55:26;;;;;;;7.27;3.23;;;;;;;21.29;65.45;100774.70;;;;-55
2020/07/17 10:58:26;;;;;;;5.47;2.94;;;;;;;21.28;65.50;100772.84;;;;-56
2020/07/17 11:01:26;;;;;;;7.33;2.97;;;;;;;21.29;65.53;100775.92;;;;-57
2020/07/17 11:04:25;;;;;;;7.69;3.25;;;;;;;21.30;65.47;100775.29;;;;-57
2020/07/17 11:07:26;;;;;;;9.79;3.17;;;;;;;21.30;65.53;100772.27;;;;-57
2020/07/17 11:10:26;;;;;;;5.51;3.20;;;;;;;21.31;65.46;100770.39;;;;-57
2020/07/17 11:13:26;;;;;;;9.97;3.09;;;;;;;21.30;65.46;100766.64;;;;-57
2020/07/17 11:16:26;;;;;;;5.84;3.25;;;;;;;21.29;65.40;100764.54;;;;-57
2020/07/17 11:19:25;;;;;;;5.47;2.95;;;;;;;21.29;65.44;100763.94;;;;-58
2020/07/17 11:22:25;;;;;;;6.90;3.07;;;;;;;21.28;65.39;100764.59;;;;-58
2020/07/17 11:25:26;;;;;;;4.43;3.04;;;;;;;21.29;65.26;100763.38;;;;-53
2020/07/17 11:28:26;;;;;;;4.79;3.20;;;;;;;21.29;65.26;100763.94;;;;-53
2020/07/17 11:31:26;;;;;;;6.03;2.91;;;;;;;21.28;65.23;100758.89;;;;-53
2020/07/17 11:34:26;;;;;;;5.32;2.99;;;;;;;21.27;65.21;100758.72;;;;-52
2020/07/17 11:37:26;;;;;;;6.51;3.07;;;;;;;21.28;65.18;100761.83;;;;-53
2020/07/17 11:40:26;;;;;;;3.95;2.85;;;;;;;21.26;65.18;100758.31;;;;-54
2020/07/17 11:43:26;;;;;;;5.41;3.21;;;;;;;21.26;65.21;100754.89;;;;-53
2020/07/17 11:46:26;;;;;;;6.86;2.80;;;;;;;21.28;65.21;100757.26;;;;-49
2020/07/17 11:49:25;;;;;;;4.67;2.89;;;;;;;21.30;65.23;100759.16;;;;-63
2020/07/17 11:52:25;;;;;;;5.35;2.87;;;;;;;21.32;65.28;100759.08;;;;-53
2020/07/17 11:55:26;;;;;;;9.41;3.06;;;;;;;21.33;65.52;100758.09;;;;-58
2020/07/17 11:58:26;;;;;;;4.15;2.99;;;;;;;21.35;65.64;100757.03;;;;-49
2020/07/17 12:01:26;;;;;;;5.35;2.83;;;;;;;21.37;65.70;100755.27;;;;-54
2020/07/17 12:04:26;;;;;;;6.13;2.84;;;;;;;21.38;65.76;100751.92;;;;-58
2020/07/17 12:07:25;;;;;;;3.67;2.74;;;;;;;21.40;65.76;100748.75;;;;-56
2020/07/17 12:10:25;;;;;;;8.18;2.84;;;;;;;21.41;65.80;100741.31;;;;-54
2020/07/17 12:13:26;;;;;;;4.40;2.75;;;;;;;21.42;65.93;100741.53;;;;-57
2020/07/17 12:16:26;;;;;;;6.69;2.89;;;;;;;21.44;65.83;100744.97;;;;-49
2020/07/17 12:19:26;;;;;;;6.91;3.05;;;;;;;21.45;65.91;100742.91;;;;-59
2020/07/17 12:22:26;;;;;;;7.52;2.83;;;;;;;21.47;65.97;100750.33;;;;-51
2020/07/17 12:25:26;;;;;;;5.92;2.92;;;;;;;21.47;65.91;100747.89;;;;-50
2020/07/17 12:28:26;;;;;;;6.68;3.07;;;;;;;21.48;65.98;100737.80;;;;-57
2020/07/17 12:31:25;;;;;;;7.49;3.01;;;;;;;21.50;65.89;100738.84;;;;-49
2020/07/17 12:34:25;;;;;;;7.20;2.96;;;;;;;21.52;65.97;100736.97;;;;-58
2020/07/17 12:37:25;;;;;;;9.21;3.39;;;;;;;21.52;66.09;100735.20;;;;-50
2020/07/17 12:40:26;;;;;;;8.77;2.83;;;;;;;21.53;65.96;100728.42;;;;-53
2020/07/17 12:43:26;;;;;;;6.55;2.76;;;;;;;21.54;66.03;100733.48;;;;-60
2020/07/17 12:46:26;;;;;;;13.05;2.73;;;;;;;21.55;66.06;100732.09;;;;-59
2020/07/17 12:49:25;;;;;;;5.89;2.89;;;;;;;21.56;65.93;100732.60;;;;-53
2020/07/17 12:52:26;;;;;;;5.12;2.57;;;;;;;21.58;65.81;100728.17;;;;-56
2020/07/17 12:55:25;;;;;;;8.10;2.97;;;;;;;21.58;65.89;100722.55;;;;-63
2020/07/17 12:58:26;;;;;;;11.61;2.95;;;;;;;21.59;65.75;100727.45;;;;-57
2020/07/17 13:01:26;;;;;;;6.99;2.85;;;;;;;21.60;65.86;100729.81;;;;-59
2020/07/17 13:04:26;;;;;;;7.78;3.01;;;;;;;21.61;65.92;100733.99;;;;-57
2020/07/17 13:07:26;;;;;;;7.29;2.73;;;;;;;21.62;66.00;100732.29;;;;-53
2020/07/17 13:10:26;;;;;;;9.42;2.66;;;;;;;21.63;65.97;100725.02;;;;-53
2020/07/17 13:13:25;;;;;;;11.79;2.73;;;;;;;21.63;65.98;100722.41;;;;-59
2020/07/17 13:16:26;;;;;;;10.65;2.70;;;;;;;21.64;65.79;100724.44;;;;-61
2020/07/17 13:19:26;;;;;;;6.25;2.80;;;;;;;21.65;65.81;100721.84;;;;-59
2020/07/17 13:22:26;;;;;;;6.14;2.74;;;;;;;21.65;65.78;100727.70;;;;-57
2020/07/17 13:25:26;;;;;;;10.75;2.97;;;;;;;21.67;65.81;100716.71;;;;-55
2020/07/17 13:28:26;;;;;;;11.95;2.89;;;;;;;21.67;65.86;100712.87;;;;-57
2020/07/17 13:31:26;;;;;;;8.06;2.95;;;;;;;21.68;65.95;100716.20;;;;-57
2020/07/17 13:34:25;;;;;;;9.15;3.00;;;;;;;21.68;65.85;100716.13;;;;-55
2020/07/17 13:37:26;;;;;;;10.41;3.01;;;;;;;21.69;65.76;100714.75;;;;-61
2020/07/17 13:40:26;;;;;;;10.89;3.06;;;;;;;21.69;65.75;100715.89;;;;-54
2020/07/17 13:43:26;;;;;;;14.21;2.99;;;;;;;21.69;65.81;100718.09;;;;-57
2020/07/17 13:46:26;;;;;;;11.28;3.07;;;;;;;21.70;65.80;100713.35;;;;-58
2020/07/17 13:49:26;;;;;;;7.03;2.96;;;;;;;21.71;65.90;100696.16;;;;-60
2020/07/17 13:52:25;;;;;;;10.54;2.92;;;;;;;21.72;65.80;100702.92;;;;-57
2020/07/17 13:55:25;;;;;;;15.08;3.12;;;;;;;21.72;65.76;100694.43;;;;-59
2020/07/17 13:58:26;;;;;;;12.59;2.83;;;;;;;21.72;65.64;100697.78;;;;-54
2020/07/17 14:01:26;;;;;;;19.17;3.18;;;;;;;21.74;65.81;100699.17;;;;-51
2020/07/17 14:04:26;;;;;;;14.94;3.22;;;;;;;21.75;65.82;100699.64;;;;-52
2020/07/17 14:07:26;;;;;;;10.45;2.98;;;;;;;21.74;65.73;100702.19;;;;-61
2020/07/17 14:10:25;;;;;;;11.63;2.80;;;;;;;21.75;65.76;100699.18;;;;-50
2020/07/17 14:13:25;;;;;;;9.65;2.75;;;;;;;21.75;65.70;100703.59;;;;-56
2020/07/17 14:16:25;;;;;;;9.77;2.75;;;;;;;21.74;65.51;100699.34;;;;-50
2020/07/17 14:19:26;;;;;;;9.71;2.90;;;;;;;21.74;65.47;100706.02;;;;-50
2020/07/17 14:22:26;;;;;;;14.36;3.12;;;;;;;21.73;65.44;100704.70;;;;-50
2020/07/17 14:25:26;;;;;;;5.93;2.68;;;;;;;21.71;65.38;100702.68;;;;-59
2020/07/17 14:28:25;;;;;;;10.93;2.85;;;;;;;21.71;65.30;100708.23;;;;-58
2020/07/17 14:31:25;;;;;;;7.32;2.67;;;;;;;21.72;65.26;100707.00;;;;-59
2020/07/17 14:34:25;;;;;;;11.03;2.91;;;;;;;21.71;65.13;100706.11;;;;-56
2020/07/17 14:37:26;;;;;;;6.82;2.75;;;;;;;21.72;65.11;100708.63;;;;-52
2020/07/17 14:40:26;;;;;;;8.33;2.65;;;;;;;21.72;65.08;100714.09;;;;-52
2020/07/17 14:43:26;;;;;;;8.99;2.79;;;;;;;21.72;65.05;100712.54;;;;-56
2020/07/17 14:46:25;;;;;;;6.33;2.69;;;;;;;21.71;64.98;100710.52;;;;-57
2020/07/17 14:49:25;;;;;;;6.77;2.50;;;;;;;21.70;64.96;100710.98;;;;-58
2020/07/17 14:52:26;;;;;;;4.65;2.41;;;;;;;21.70;65.00;100712.13;;;;-56
2020/07/17 14:55:26;;;;;;;9.65;2.70;;;;;;;21.69;64.95;100715.33;;;;-52
2020/07/17 14:58:26;;;;;;;4.57;2.49;;;;;;;21.68;64.89;100714.81;;;;-51
2020/07/17 15:01:26;;;;;;;4.85;2.38;;;;;;;21.67;64.90;100716.30;;;;-56
2020/07/17 15:04:26;;;;;;;5.44;2.43;;;;;;;21.67;64.90;100715.57;;;;-53
2020/07/17 15:07:25;;;;;;;6.77;2.36;;;;;;;21.65;64.75;100713.77;;;;-53
2020/07/17 15:10:25;;;;;;;4.70;2.41;;;;;;;21.64;64.90;100707.71;;;;-52
2020/07/17 15:13:26;;;;;;;3.57;2.32;;;;;;;21.64;64.87;100704.05;;;;-53
2020/07/17 15:16:25;;;;;;;4.99;2.39;;;;;;;21.63;64.76;100706.50;;;;-53
2020/07/17 15:19:26;;;;;;;6.41;2.29;;;;;;;21.64;64.71;100707.23;;;;-50
2020/07/17 15:22:26;;;;;;;4.33;2.55;;;;;;;21.62;64.76;100704.94;;;;-51
2020/07/17 15:25:25;;;;;;;7.49;2.57;;;;;;;21.61;64.79;100704.55;;;;-58
2020/07/17 15:28:25;;;;;;;4.51;2.47;;;;;;;21.63;64.62;100705.03;;;;-58
2020/07/17 15:31:25;;;;;;;3.24;2.13;;;;;;;21.64;64.68;100705.35;;;;-50
2020/07/17 15:34:26;;;;;;;3.46;2.41;;;;;;;21.64;64.56;100710.16;;;;-53
2020/07/17 15:37:26;;;;;;;5.20;2.31;;;;;;;21.64;64.56;100699.23;;;;-54
2020/07/17 15:40:26;;;;;;;4.90;2.35;;;;;;;21.63;64.65;100698.52;;;;-66
2020/07/17 15:43:26;;;;;;;5.07;2.17;;;;;;;21.63;64.64;100694.92;;;;-57
2020/07/17 15:46:25;;;;;;;3.43;2.10;;;;;;;21.64;64.70;100696.38;;;;-65
2020/07/17 15:49:25;;;;;;;4.89;2.30;;;;;;;21.65;64.57;100695.73;;;;-59
2020/07/17 15:52:25;;;;;;;4.12;2.19;;;;;;;21.66;64.55;100691.66;;;;-56
2020/07/17 15:55:25;;;;;;;3.30;2.19;;;;;;;21.65;64.66;100688.56;;;;-59
2020/07/17 15:58:25;;;;;;;3.35;2.30;;;;;;;21.66;64.62;100686.03;;;;-63
2020/07/17 16:01:26;;;;;;;3.63;2.18;;;;;;;21.66;64.62;100689.69;;;;-62
2020/07/17 16:04:25;;;;;;;3.77;2.21;;;;;;;21.67;64.64;100689.47;;;;-57
2020/07/17 16:07:25;;;;;;;2.82;2.27;;;;;;;21.66;64.53;100694.25;;;;-55
2020/07/17 16:10:25;;;;;;;8.67;2.41;;;;;;;21.67;64.60;100693.86;;;;-48
2020/07/17 16:13:26;;;;;;;6.14;2.23;;;;;;;21.68;64.60;100691.66;;;;-52
2020/07/17 16:16:26;;;;;;;4.87;2.40;;;;;;;21.69;64.39;100690.45;;;;-52
2020/07/17 16:19:26;;;;;;;8.05;2.62;;;;;;;21.69;64.35;100692.48;;;;-50
2020/07/17 16:22:26;;;;;;;5.93;2.25;;;;;;;21.69;64.44;100693.55;;;;-63
2020/07/17 16:25:25;;;;;;;3.45;2.17;;;;;;;21.71;64.24;100692.48;;;;-48
2020/07/17 16:30:25;;;;;;;4.48;2.31;;;;;;;21.73;64.43;100691.91;;;;-50
2020/07/17 16:35:25;;;;;;;6.21;2.22;;;;;;;21.76;64.31;100691.02;;;;-52
2020/07/17 16:38:25;;;;;;;3.15;2.15;;;;;;;21.75;64.34;100691.67;;;;-52
2020/07/17 16:41:25;;;;;;;3.91;2.20;;;;;;;21.76;64.40;100691.01;;;;-50
2020/07/17 16:44:25;;;;;;;2.22;2.02;;;;;;;21.75;64.39;100684.82;;;;-51
2020/07/17 16:47:25;;;;;;;3.32;2.20;;;;;;;21.75;64.44;100685.89;;;;-57
2020/07/17 16:50:25;;;;;;;3.61;2.15;;;;;;;21.75;64.43;100688.50;;;;-54
2020/07/17 16:53:25;;;;;;;3.95;2.23;;;;;;;21.74;64.38;100687.59;;;;-53